createdAt,value
2017-08-16T00:00:40.053Z,4.12
2017-08-16T00:03:11.083Z,3.37
2017-08-16T00:05:42.073Z,3.80
2017-08-16T00:08:12.852Z,3.57
2017-08-16T00:10:44.833Z,3.53
2017-08-16T00:13:16.681Z,3.45
2017-08-16T00:15:47.635Z,3.92
2017-08-16T00:18:18.265Z,3.90
2017-08-16T00:20:49.628Z,3.80
2017-08-16T00:23:20.763Z,3.83
2017-08-16T00:25:51.876Z,3.60
2017-08-16T00:28:22.588Z,3.47
2017-08-16T00:30:54.249Z,3.37
2017-08-16T00:33:24.702Z,3.55
2017-08-16T00:35:55.424Z,3.50
2017-08-16T00:38:27.320Z,4.20
2017-08-16T00:40:58.466Z,3.97
2017-08-16T00:43:29.264Z,3.85
2017-08-16T00:46:00.228Z,4.20
2017-08-16T00:48:31.296Z,4.30
2017-08-16T00:51:02.517Z,4.60
2017-08-16T00:53:32.978Z,4.60
2017-08-16T00:56:03.872Z,4.60
2017-08-16T00:58:34.456Z,4.28
2017-08-16T01:01:05.213Z,4.70
2017-08-16T01:03:36.061Z,3.90
2017-08-16T01:06:07.149Z,4.68
2017-08-16T01:08:38.096Z,4.30
2017-08-16T01:11:09.931Z,5.20
2017-08-16T01:13:40.539Z,4.40
2017-08-16T01:16:11.522Z,4.80
2017-08-16T01:18:42.180Z,4.40
2017-08-16T01:21:12.764Z,4.57
2017-08-16T01:23:42.904Z,4.30
2017-08-16T01:26:13.823Z,4.93
2017-08-16T01:28:44.349Z,4.37
2017-08-16T01:31:15.568Z,4.30
2017-08-16T01:33:46.253Z,4.60
2017-08-16T01:36:17.194Z,4.50
2017-08-16T01:38:47.716Z,4.20
2017-08-16T01:41:20.278Z,4.85
2017-08-16T01:43:51.029Z,4.50
2017-08-16T01:46:22.261Z,4.70
2017-08-16T01:48:53.406Z,4.35
2017-08-16T01:51:24.756Z,4.50
2017-08-16T01:53:55.660Z,4.30
2017-08-16T01:56:28.300Z,4.37
2017-08-16T01:58:59.377Z,4.20
2017-08-16T02:01:30.249Z,4.90
2017-08-16T02:04:00.996Z,4.62
2017-08-16T02:06:31.744Z,4.40
2017-08-16T02:09:02.297Z,4.60
2017-08-16T02:11:33.792Z,4.53
2017-08-16T02:14:04.479Z,4.70
2017-08-16T02:16:35.350Z,4.90
2017-08-16T02:19:05.879Z,6.15
2017-08-16T02:21:37.558Z,6.65
2017-08-16T02:24:08.562Z,5.40
2017-08-16T02:26:40.660Z,5.72
2017-08-16T02:29:11.423Z,6.00
2017-08-16T02:31:42.437Z,5.85
2017-08-16T02:34:13.394Z,6.00
2017-08-16T02:36:45.188Z,6.20
2017-08-16T02:39:16.150Z,7.90
2017-08-16T02:41:47.055Z,6.60
2017-08-16T02:44:17.797Z,6.40
2017-08-16T02:46:48.444Z,6.10
2017-08-16T02:49:18.992Z,6.57
2017-08-16T02:51:49.994Z,5.90
2017-08-16T02:54:20.478Z,7.00
2017-08-16T02:56:52.571Z,6.60
2017-08-16T02:59:23.421Z,4.80
2017-08-16T03:01:54.223Z,4.82
2017-08-16T03:04:24.705Z,4.00
2017-08-16T03:06:55.626Z,3.10
2017-08-16T03:09:27.353Z,2.90
2017-08-16T03:11:59.085Z,2.90
2017-08-16T03:14:31.088Z,2.73
2017-08-16T03:17:01.569Z,3.30
2017-08-16T03:19:32.697Z,2.65
2017-08-16T03:22:04.083Z,2.80
2017-08-16T03:24:34.956Z,2.60
2017-08-16T03:27:05.821Z,2.90
2017-08-16T03:29:36.412Z,2.80
2017-08-16T03:32:07.202Z,3.00
2017-08-16T03:34:38.044Z,2.70
2017-08-16T03:37:08.560Z,2.50
2017-08-16T03:39:39.169Z,3.03
2017-08-16T03:42:10.025Z,2.80
2017-08-16T03:44:40.561Z,3.00
2017-08-16T03:47:11.485Z,3.03
2017-08-16T03:49:42.135Z,2.90
2017-08-16T03:52:17.042Z,2.60
2017-08-16T03:54:47.324Z,3.10
2017-08-16T03:57:18.434Z,3.00
2017-08-16T03:59:48.859Z,3.00
2017-08-16T04:02:19.469Z,3.10
2017-08-16T04:04:50.233Z,3.20
2017-08-16T04:07:20.668Z,3.50
2017-08-16T04:09:51.105Z,3.00
2017-08-16T04:12:26.202Z,2.43
2017-08-16T04:15:02.850Z,2.65
2017-08-16T04:17:33.754Z,3.60
2017-08-16T04:20:04.194Z,2.92
2017-08-16T04:22:44.853Z,3.40
2017-08-16T04:25:15.237Z,3.10
2017-08-16T04:27:46.078Z,3.30
2017-08-16T04:30:16.385Z,2.83
2017-08-16T04:32:46.828Z,2.87
2017-08-16T04:35:18.134Z,3.10
2017-08-16T04:37:48.526Z,3.00
2017-08-16T04:40:18.845Z,2.92
2017-08-16T04:42:50.073Z,3.97
2017-08-16T04:45:20.569Z,3.70
2017-08-16T04:47:50.748Z,3.90
2017-08-16T04:50:20.928Z,3.35
2017-08-16T04:52:51.573Z,3.60
2017-08-16T04:55:22.146Z,3.80
2017-08-16T04:57:52.255Z,3.20
2017-08-16T05:00:22.866Z,3.45
2017-08-16T05:03:02.480Z,4.00
2017-08-16T05:05:32.942Z,3.83
2017-08-16T05:08:03.049Z,3.58
2017-08-16T05:10:33.073Z,3.55
2017-08-16T05:13:04.043Z,4.20
2017-08-16T05:15:34.192Z,4.15
2017-08-16T05:18:10.446Z,4.50
2017-08-16T05:20:40.537Z,3.80
2017-08-16T05:23:10.560Z,4.57
2017-08-16T05:25:41.284Z,3.95
2017-08-16T05:28:11.748Z,4.20
2017-08-16T05:30:41.999Z,4.20
2017-08-16T05:33:12.336Z,4.78
2017-08-16T05:35:42.904Z,4.82
2017-08-16T05:38:13.353Z,4.80
2017-08-16T05:40:43.572Z,5.00
2017-08-16T05:43:13.696Z,3.35
2017-08-16T05:45:44.057Z,3.10
2017-08-16T05:48:14.393Z,4.60
2017-08-16T05:50:44.458Z,5.05
2017-08-16T05:53:14.767Z,4.22
2017-08-16T05:55:45.197Z,4.30
2017-08-16T05:58:15.230Z,4.22
2017-08-16T06:00:45.664Z,4.50
2017-08-16T06:03:15.761Z,4.18
2017-08-16T06:05:45.841Z,4.53
2017-08-16T06:08:16.132Z,4.17
2017-08-16T06:10:46.130Z,5.05
2017-08-16T06:13:16.789Z,4.30
2017-08-16T06:15:47.104Z,4.10
2017-08-16T06:18:17.189Z,4.70
2017-08-16T06:20:47.475Z,3.92
2017-08-16T06:23:17.797Z,3.65
2017-08-16T06:25:47.858Z,3.80
2017-08-16T06:28:18.107Z,3.60
2017-08-16T06:30:48.451Z,3.97
2017-08-16T06:33:18.896Z,3.50
2017-08-16T06:35:49.284Z,3.63
2017-08-16T06:38:19.863Z,3.50
2017-08-16T06:40:50.764Z,3.70
2017-08-16T06:43:21.286Z,3.90
2017-08-16T06:45:51.856Z,4.30
2017-08-16T06:48:22.169Z,4.00
2017-08-16T06:50:53.240Z,4.50
2017-08-16T06:53:23.379Z,4.50
2017-08-16T06:55:53.667Z,4.93
2017-08-16T06:58:24.592Z,4.50
2017-08-16T07:00:54.662Z,4.13
2017-08-16T07:03:24.906Z,3.97
2017-08-16T07:05:55.539Z,4.00
2017-08-16T07:08:25.925Z,3.60
2017-08-16T07:10:56.619Z,4.00
2017-08-16T07:13:27.057Z,4.15
2017-08-16T07:15:57.153Z,3.47
2017-08-16T07:18:27.911Z,3.70
2017-08-16T07:20:58.079Z,4.10
2017-08-16T07:23:28.198Z,3.50
2017-08-16T07:25:58.519Z,3.90
2017-08-16T07:28:28.770Z,4.45
2017-08-16T07:30:59.214Z,3.90
2017-08-16T07:33:29.817Z,4.45
2017-08-16T07:35:59.853Z,4.60
2017-08-16T07:38:29.966Z,5.12
2017-08-16T07:41:00.232Z,3.87
2017-08-16T07:43:30.316Z,4.37
2017-08-16T07:46:00.413Z,3.90
2017-08-16T07:48:30.707Z,3.78
2017-08-16T07:51:00.791Z,3.00
2017-08-16T07:53:35.559Z,3.40
2017-08-16T07:56:05.890Z,2.80
2017-08-16T08:01:15.238Z,3.33
2017-08-16T08:03:45.292Z,3.80
2017-08-16T08:06:15.363Z,3.40
2017-08-16T08:08:45.730Z,3.10
2017-08-16T08:11:15.796Z,3.10
2017-08-16T08:13:46.081Z,3.00
2017-08-16T08:16:16.120Z,3.30
2017-08-16T08:18:46.518Z,3.25
2017-08-16T08:21:16.648Z,2.85
2017-08-16T08:23:46.807Z,2.80
2017-08-16T08:26:17.170Z,3.80
2017-08-16T08:28:47.492Z,4.30
2017-08-16T08:31:17.564Z,4.40
2017-08-16T08:33:47.884Z,3.60
2017-08-16T08:36:17.969Z,2.90
2017-08-16T08:38:48.037Z,3.70
2017-08-16T08:41:18.335Z,3.07
2017-08-16T08:43:48.537Z,3.67
2017-08-16T08:46:18.538Z,3.10
2017-08-16T08:48:48.950Z,3.58
2017-08-16T08:52:43.165Z,3.53
2017-08-16T08:55:13.268Z,3.10
2017-08-16T08:57:43.362Z,3.40
2017-08-16T09:00:13.644Z,2.70
2017-08-16T09:02:43.746Z,3.65
2017-08-16T09:05:13.781Z,3.00
2017-08-16T09:07:43.875Z,3.60
2017-08-16T09:10:14.123Z,2.85
2017-08-16T09:12:44.197Z,3.80
2017-08-16T09:15:14.713Z,3.83
2017-08-16T09:17:44.775Z,3.28
2017-08-16T09:20:15.129Z,2.75
2017-08-16T09:22:45.238Z,3.05
2017-08-16T09:25:16.451Z,2.50
2017-08-16T09:27:46.809Z,3.00
2017-08-16T09:30:18.377Z,2.60
2017-08-16T09:32:48.492Z,2.92
2017-08-16T09:35:19.727Z,2.37
2017-08-16T09:37:49.864Z,2.72
2017-08-16T09:40:20.700Z,2.80
2017-08-16T09:42:50.737Z,3.03
2017-08-16T09:45:20.840Z,2.80
2017-08-16T09:47:50.901Z,2.65
2017-08-16T09:50:21.044Z,2.80
2017-08-16T09:53:06.326Z,2.87
2017-08-16T09:55:36.393Z,2.90
2017-08-16T09:58:06.733Z,3.20
2017-08-16T10:00:38.573Z,3.30
2017-08-16T10:03:09.425Z,3.80
2017-08-16T10:05:39.790Z,2.93
2017-08-16T10:08:09.867Z,2.90
2017-08-16T10:10:40.022Z,3.10
2017-08-16T10:13:10.539Z,3.20
2017-08-16T10:15:40.716Z,2.80
2017-08-16T10:18:11.089Z,2.80
2017-08-16T10:20:41.532Z,2.80
2017-08-16T10:23:11.803Z,2.55
2017-08-16T10:25:41.890Z,3.22
2017-08-16T10:28:12.801Z,2.70
2017-08-16T10:30:42.857Z,2.65
2017-08-16T10:33:14.071Z,2.50
2017-08-16T10:35:44.648Z,2.60
2017-08-16T10:38:15.026Z,2.80
2017-08-16T10:40:45.378Z,2.80
2017-08-16T10:43:15.792Z,2.70
2017-08-16T10:45:45.924Z,2.57
2017-08-16T10:48:16.018Z,3.05
2017-08-16T10:50:46.359Z,3.20
2017-08-16T10:53:16.708Z,2.60
2017-08-16T10:55:47.100Z,4.20
2017-08-16T10:58:17.489Z,5.30
2017-08-16T11:00:47.941Z,3.37
2017-08-16T11:03:18.001Z,3.07
2017-08-16T11:05:48.436Z,3.55
2017-08-16T11:08:18.483Z,3.80
2017-08-16T11:10:48.623Z,3.40
2017-08-16T11:13:19.112Z,3.05
2017-08-16T11:15:49.773Z,2.65
2017-08-16T11:18:20.169Z,2.40
2017-08-16T11:20:50.635Z,2.50
2017-08-16T11:23:20.716Z,2.50
2017-08-16T11:25:50.736Z,2.83
2017-08-16T11:28:21.138Z,3.10
2017-08-16T11:30:51.627Z,2.40
2017-08-16T11:33:21.792Z,2.53
2017-08-16T11:35:51.900Z,2.80
2017-08-16T11:38:22.248Z,2.80
2017-08-16T11:40:52.619Z,3.10
2017-08-16T11:43:22.789Z,3.20
2017-08-16T11:45:52.890Z,3.30
2017-08-16T11:48:23.296Z,3.60
2017-08-16T11:50:53.452Z,3.35
2017-08-16T11:53:23.519Z,3.00
2017-08-16T11:55:54.540Z,3.00
2017-08-16T11:58:24.705Z,3.10
2017-08-16T12:01:10.174Z,3.08
2017-08-16T12:03:40.570Z,3.10
2017-08-16T12:06:10.709Z,2.78
2017-08-16T12:08:40.842Z,2.78
2017-08-16T12:11:11.077Z,2.50
2017-08-16T12:13:41.087Z,2.85
2017-08-16T12:16:11.604Z,2.90
2017-08-16T12:18:41.923Z,2.97
2017-08-16T12:21:12.115Z,3.12
2017-08-16T12:23:42.161Z,2.78
2017-08-16T12:26:12.478Z,2.97
2017-08-16T12:28:50.091Z,3.67
2017-08-16T12:31:30.475Z,3.20
2017-08-16T12:34:01.039Z,3.37
2017-08-16T12:36:31.144Z,3.08
2017-08-16T12:39:01.362Z,2.90
2017-08-16T12:41:31.520Z,3.50
2017-08-16T12:44:01.687Z,3.10
2017-08-16T12:46:31.821Z,2.97
2017-08-16T12:49:02.341Z,3.20
2017-08-16T12:51:32.482Z,2.50
2017-08-16T12:54:02.584Z,2.80
2017-08-16T12:56:33.289Z,3.08
2017-08-16T12:59:04.364Z,2.90
